Status Flugplatz

Der Flugplatz ist offen
PPR Regelung ! PJE !!!

123.15 MHz
RWY 05/23

flüger beizli - Öffnungszeiten
Freitag ab 16:00
Samstag +Sonntag ab 11:00
Bei schönem Wetter öffnen wir früher! Tel.: 079 234 07 74

Regelung Para-Betrieb 

Flugzeuge: 

  • Allgemein bei Para-Betrieb kein Overhead.
  • Gut sichtbares Warnblinklicht „Para-in-the air“ beachten
  • Bei „Para-in-the air“ --> kein Verkehr auf Taxiway 05. 
  • Starts/Landungen und Rollen im übrigen Bereich nicht eingeschränkt.
  • Verantwortung für sicheren Betrieb unter Berücksichtigung der erhaltenen Meldungen über den Para-Betrieb liegt vollumfänglich beim Piloten.
     

Paras:

  • Am offenen Schirm fliegen die Springer in Richtung Parabox und bewegen sich dann in diesem Raum bis zur Landung.

 

 

 

Wetter Kappelen

 


 

[source: ADDS]
METAR
LSZG 172020Z AUTO 24005KT 9999 BKN043 02/M01 Q1018 RESN =
TAF
TAF LSZG 171425Z 1715/1724 26015G30KT 9999 FEW030 SCT050 TEMPO 1715/1721 2000 SHGSSN BKN012TCU PROB30 TEMPO 1715/1718 1200 TSGSSN SCT012CB TEMPO 1721/1724 4500 BKN010 =
SR / SS: 07:12 / 16:12 UTC ( 2018-01-17)

 


 

Flugplatz Biel-Kappelen LSZP - 123.15MHz - 032 384 46 84

Email: Diese E-Mail-Adresse ist vor Spambots geschützt! Zur Anzeige muss JavaScript eingeschaltet sein!
www.lszp.ch
2017 © by mb

Zum Anfang